createdAt,value
2019-02-22T00:01:18.351Z,12.28
2019-02-22T00:03:49.055Z,11.15
2019-02-22T00:06:19.639Z,9.30
2019-02-22T00:08:50.359Z,9.85
2019-02-22T00:11:20.935Z,10.75
2019-02-22T00:13:51.537Z,11.03
2019-02-22T00:16:22.002Z,9.88
2019-02-22T00:18:52.762Z,8.93
2019-02-22T00:21:23.436Z,9.13
2019-02-22T00:23:54.164Z,10.15
2019-02-22T00:26:24.738Z,8.60
2019-02-22T00:28:55.400Z,8.90
2019-02-22T00:31:26.211Z,8.30
2019-02-22T00:33:56.787Z,9.28
2019-02-22T00:36:27.382Z,8.93
2019-02-22T00:38:57.860Z,8.65
2019-02-22T00:41:28.645Z,8.88
2019-02-22T00:43:59.312Z,10.40
2019-02-22T00:46:30.045Z,8.83
2019-02-22T00:49:00.729Z,8.88
2019-02-22T00:51:31.372Z,7.95
2019-02-22T00:54:01.974Z,8.00
2019-02-22T00:56:32.566Z,8.38
2019-02-22T00:59:03.004Z,8.30
2019-02-22T01:01:33.617Z,8.05
2019-02-22T01:04:04.120Z,7.65
2019-02-22T01:06:34.833Z,8.20
2019-02-22T01:09:05.727Z,8.33
2019-02-22T01:11:36.239Z,9.38
2019-02-22T01:14:06.840Z,7.83
2019-02-22T01:16:37.518Z,7.50
2019-02-22T01:19:08.233Z,7.60
2019-02-22T01:21:38.806Z,8.00
2019-02-22T01:24:09.616Z,7.45
2019-02-22T01:26:40.210Z,7.50
2019-02-22T01:29:11.074Z,7.47
2019-02-22T01:31:41.543Z,7.42
2019-02-22T01:34:12.044Z,7.33
2019-02-22T01:36:42.637Z,7.50
2019-02-22T01:39:13.303Z,8.08
2019-02-22T01:41:43.813Z,7.50
2019-02-22T01:44:23.924Z,7.08
2019-02-22T01:46:54.376Z,7.80
2019-02-22T01:49:25.135Z,7.42
2019-02-22T01:51:55.864Z,6.90
2019-02-22T01:54:26.703Z,6.35
2019-02-22T01:56:57.375Z,6.30
2019-02-22T01:59:28.005Z,6.37
2019-02-22T02:01:58.692Z,7.08
2019-02-22T02:04:30.154Z,6.62
2019-02-22T02:07:00.804Z,6.15
2019-02-22T02:09:31.294Z,6.00
2019-02-22T02:12:02.191Z,6.28
2019-02-22T02:14:32.869Z,6.60
2019-02-22T02:17:03.565Z,7.08
2019-02-22T02:19:34.185Z,5.45
2019-02-22T02:22:04.906Z,5.65
2019-02-22T02:24:35.521Z,5.72
2019-02-22T02:27:06.083Z,6.80
2019-02-22T02:29:36.695Z,5.83
2019-02-22T02:32:07.323Z,5.87
2019-02-22T02:34:37.928Z,5.55
2019-02-22T02:37:08.726Z,6.17
2019-02-22T02:39:39.405Z,6.00
2019-02-22T02:42:09.960Z,5.00
2019-02-22T02:44:40.705Z,5.85
2019-02-22T02:47:11.334Z,6.58
2019-02-22T02:49:41.830Z,6.22
2019-02-22T02:52:12.652Z,5.55
2019-02-22T02:54:43.218Z,5.65
2019-02-22T02:57:13.925Z,5.28
2019-02-22T02:59:44.777Z,5.22
2019-02-22T03:02:25.144Z,5.70
2019-02-22T03:04:55.894Z,5.08
2019-02-22T03:07:46.523Z,5.42
2019-02-22T03:10:17.133Z,4.80
2019-02-22T03:12:47.928Z,5.28
2019-02-22T03:15:19.513Z,5.20
2019-02-22T03:17:50.143Z,5.10
2019-02-22T03:20:20.777Z,4.97
2019-02-22T03:22:51.689Z,5.83
2019-02-22T03:25:22.453Z,4.78
2019-02-22T03:27:52.982Z,4.83
2019-02-22T03:30:23.519Z,5.17
2019-02-22T03:32:54.121Z,4.87
2019-02-22T03:35:24.770Z,5.03
2019-02-22T03:37:55.528Z,4.45
2019-02-22T03:40:26.047Z,4.83
2019-02-22T03:42:56.764Z,4.50
2019-02-22T03:45:27.424Z,5.20
2019-02-22T03:47:58.174Z,4.85
2019-02-22T03:50:28.775Z,5.00
2019-02-22T03:53:05.961Z,5.22
2019-02-22T03:55:36.852Z,4.67
2019-02-22T03:58:07.655Z,4.17
2019-02-22T04:00:38.332Z,4.62
2019-02-22T04:03:08.921Z,4.30
2019-02-22T04:05:39.637Z,4.70
2019-02-22T04:08:10.222Z,4.40
2019-02-22T04:10:40.862Z,3.95
2019-02-22T04:13:11.622Z,4.20
2019-02-22T04:15:42.190Z,4.35
2019-02-22T04:18:16.413Z,4.83
2019-02-22T04:20:46.910Z,4.70
2019-02-22T04:23:17.713Z,5.28
2019-02-22T04:25:48.168Z,4.22
2019-02-22T04:32:18.909Z,3.72
2019-02-22T04:34:49.514Z,4.22
2019-02-22T04:37:20.209Z,5.45
2019-02-22T04:39:50.859Z,4.22
2019-02-22T04:42:21.570Z,4.37
2019-02-22T04:44:52.882Z,4.40
2019-02-22T04:47:23.288Z,6.70
2019-02-22T04:49:53.986Z,4.05
2019-02-22T04:52:24.721Z,5.35
2019-02-22T04:54:55.416Z,3.90
2019-02-22T04:57:26.122Z,5.17
2019-02-22T04:59:56.806Z,3.77
2019-02-22T05:02:27.432Z,3.98
2019-02-22T05:04:58.094Z,3.70
2019-02-22T05:07:29.035Z,3.80
2019-02-22T05:09:59.836Z,3.67
2019-02-22T05:12:30.514Z,4.22
2019-02-22T05:15:11.801Z,4.60
2019-02-22T05:17:35.735Z,3.58
2019-02-22T05:20:06.686Z,4.30
2019-02-22T05:22:37.452Z,4.53
2019-02-22T05:25:08.557Z,3.20
2019-02-22T05:27:39.356Z,3.62
2019-02-22T05:30:10.197Z,3.35
2019-02-22T05:32:40.740Z,3.33
2019-02-22T05:35:11.573Z,3.55
2019-02-22T05:37:42.373Z,4.30
2019-02-22T05:40:13.058Z,3.45
2019-02-22T05:42:43.885Z,3.37
2019-02-22T05:45:14.470Z,3.50
2019-02-22T05:47:45.147Z,3.25
2019-02-22T05:50:15.686Z,3.27
2019-02-22T05:52:46.423Z,3.45
2019-02-22T05:55:17.148Z,3.60
2019-02-22T05:57:47.891Z,4.15
2019-02-22T06:00:19.184Z,4.10
2019-02-22T06:02:49.983Z,6.92
2019-02-22T06:05:20.610Z,5.12
2019-02-22T06:07:51.283Z,4.95
2019-02-22T06:10:21.980Z,3.45
2019-02-22T06:12:52.957Z,3.55
2019-02-22T06:15:23.507Z,5.75
2019-02-22T06:17:54.358Z,9.55
2019-02-22T06:20:24.835Z,13.05
2019-02-22T06:22:55.526Z,13.00
2019-02-22T06:25:26.316Z,9.13
2019-02-22T06:27:57.013Z,8.40
2019-02-22T06:30:27.625Z,11.40
2019-02-22T06:32:58.287Z,6.45
2019-02-22T06:35:29.024Z,6.22
2019-02-22T06:37:59.772Z,8.68
2019-02-22T06:40:30.454Z,7.83
2019-02-22T06:43:01.201Z,8.98
2019-02-22T06:45:31.849Z,7.03
2019-02-22T06:48:02.437Z,7.55
2019-02-22T06:50:33.983Z,9.88
2019-02-22T06:53:06.060Z,8.13
2019-02-22T06:55:36.845Z,7.05
2019-02-22T06:58:07.461Z,9.50
2019-02-22T07:00:38.224Z,15.43
2019-02-22T07:03:08.845Z,9.60
2019-02-22T07:05:39.358Z,11.78
2019-02-22T07:08:10.138Z,10.48
2019-02-22T07:10:58.644Z,8.35
2019-02-22T07:13:30.061Z,8.40
2019-02-22T07:16:01.644Z,8.90
2019-02-22T07:18:33.238Z,6.50
2019-02-22T07:21:04.673Z,9.18
2019-02-22T07:23:37.505Z,7.20
2019-02-22T07:26:08.779Z,7.83
2019-02-22T07:28:40.385Z,8.98
2019-02-22T07:31:11.842Z,5.92
2019-02-22T07:33:43.107Z,5.37
2019-02-22T07:36:14.396Z,6.92
2019-02-22T07:38:45.726Z,4.28
2019-02-22T07:41:17.111Z,7.90
2019-02-22T07:43:48.461Z,5.53
2019-02-22T07:46:19.975Z,11.12
2019-02-22T07:48:51.230Z,5.35
2019-02-22T07:51:22.918Z,3.92
2019-02-22T07:53:54.480Z,4.72
2019-02-22T07:56:25.671Z,4.65
2019-02-22T07:58:57.046Z,3.90
2019-02-22T08:01:28.237Z,3.67
2019-02-22T08:03:59.498Z,2.70
2019-02-22T08:06:31.083Z,7.28
2019-02-22T08:09:02.276Z,5.75
2019-02-22T08:11:33.880Z,5.35
2019-02-22T08:14:04.444Z,8.00
2019-02-22T08:16:35.225Z,8.60
2019-02-22T08:19:05.800Z,6.58
2019-02-22T08:21:36.525Z,4.25
2019-02-22T08:24:07.042Z,4.28
2019-02-22T08:26:37.811Z,7.35
2019-02-22T08:29:08.626Z,7.10
2019-02-22T08:31:39.254Z,8.43
2019-02-22T08:34:09.996Z,11.18
2019-02-22T08:36:40.701Z,6.50
2019-02-22T08:39:11.322Z,5.53
2019-02-22T08:41:42.063Z,4.37
2019-02-22T08:44:12.690Z,7.42
2019-02-22T08:46:43.190Z,7.90
2019-02-22T08:49:13.886Z,5.97
2019-02-22T08:51:44.719Z,9.20
2019-02-22T08:54:15.560Z,5.92
2019-02-22T08:56:46.448Z,7.42
2019-02-22T08:59:17.042Z,7.33
2019-02-22T09:01:47.647Z,12.03
2019-02-22T09:04:18.561Z,5.95
2019-02-22T09:06:49.226Z,8.10
2019-02-22T09:09:19.884Z,4.87
2019-02-22T09:11:50.378Z,7.62
2019-02-22T09:14:21.527Z,6.47
2019-02-22T09:16:52.465Z,6.42
2019-02-22T09:19:23.124Z,5.65
2019-02-22T09:21:53.915Z,5.42
2019-02-22T09:24:24.456Z,5.37
2019-02-22T09:26:55.097Z,4.97
2019-02-22T09:29:25.691Z,3.67
2019-02-22T09:31:56.280Z,4.25
2019-02-22T09:34:26.996Z,4.33
2019-02-22T09:36:57.867Z,3.12
2019-02-22T09:39:28.485Z,4.85
2019-02-22T09:41:59.193Z,4.33
2019-02-22T09:44:29.722Z,3.52
2019-02-22T09:47:00.465Z,3.85
2019-02-22T09:49:31.083Z,4.20
2019-02-22T09:52:01.761Z,3.15
2019-02-22T09:54:32.259Z,6.42
2019-02-22T09:57:02.820Z,3.25
2019-02-22T09:59:33.408Z,4.50
2019-02-22T10:02:04.214Z,2.45
2019-02-22T10:04:34.927Z,4.33
2019-02-22T10:07:05.640Z,2.85
2019-02-22T10:09:36.477Z,7.25
2019-02-22T10:12:07.451Z,3.17
2019-02-22T10:14:38.206Z,4.62
2019-02-22T10:17:08.794Z,5.10
2019-02-22T10:19:39.303Z,4.58
2019-02-22T10:22:09.754Z,3.42
2019-02-22T10:24:40.313Z,2.85
2019-02-22T10:27:12.134Z,5.22
2019-02-22T10:29:43.053Z,3.37
2019-02-22T10:32:15.908Z,4.47
2019-02-22T10:34:46.086Z,3.17
2019-02-22T10:37:16.990Z,2.67
2019-02-22T10:39:47.551Z,2.25
2019-02-22T10:42:18.373Z,2.20
2019-02-22T10:44:48.898Z,2.90
2019-02-22T10:47:19.858Z,2.85
2019-02-22T10:49:50.466Z,3.00
2019-02-22T10:52:21.095Z,5.08
2019-02-22T10:54:51.653Z,2.25
2019-02-22T10:57:22.433Z,3.22
2019-02-22T10:59:52.840Z,3.00
2019-02-22T11:02:23.540Z,2.10
2019-02-22T11:04:54.261Z,2.10
2019-02-22T11:07:24.844Z,1.98
2019-02-22T11:09:55.600Z,2.62
2019-02-22T11:12:26.419Z,3.25
2019-02-22T11:14:57.092Z,3.70
2019-02-22T11:17:27.825Z,1.92
2019-02-22T11:19:58.568Z,2.42
2019-02-22T11:22:30.110Z,3.67
2019-02-22T11:25:01.901Z,3.42
2019-02-22T11:27:32.675Z,2.75
2019-02-22T11:30:03.567Z,2.60
2019-02-22T11:32:34.569Z,2.62
2019-02-22T11:35:05.871Z,2.30
2019-02-22T11:37:36.766Z,2.55
2019-02-22T11:40:08.007Z,2.35
2019-02-22T11:42:38.705Z,3.17
2019-02-22T11:45:09.611Z,2.25
2019-02-22T11:47:40.432Z,2.00
2019-02-22T11:50:11.194Z,6.12
2019-02-22T11:52:41.733Z,8.28
2019-02-22T11:55:12.308Z,7.67
2019-02-22T11:57:43.044Z,6.58
2019-02-22T12:00:16.314Z,5.58
2019-02-22T12:02:47.330Z,6.47
2019-02-22T12:05:17.935Z,5.78
2019-02-22T12:07:48.567Z,6.83
2019-02-22T12:10:19.283Z,7.55
2019-02-22T12:12:50.158Z,8.00
2019-02-22T12:15:20.575Z,6.45
2019-02-22T12:17:51.386Z,15.88
2019-02-22T12:20:22.094Z,10.90
2019-02-22T12:22:53.033Z,9.13
2019-02-22T12:25:23.807Z,7.53
2019-02-22T12:27:54.456Z,7.70
2019-02-22T12:30:25.777Z,6.42
2019-02-22T12:32:56.729Z,8.88
2019-02-22T12:35:27.217Z,7.12
2019-02-22T12:37:57.769Z,7.17
2019-02-22T12:40:28.269Z,5.50
2019-02-22T12:42:58.999Z,10.58
2019-02-22T12:45:29.564Z,6.33
2019-02-22T12:48:00.027Z,6.90
2019-02-22T12:50:31.282Z,6.25
2019-02-22T12:53:02.071Z,7.70
2019-02-22T12:55:32.891Z,5.33
2019-02-22T12:58:03.566Z,8.98
2019-02-22T13:00:34.196Z,6.50
2019-02-22T13:03:04.671Z,5.45
2019-02-22T13:05:35.443Z,5.10
2019-02-22T13:08:06.552Z,11.83
2019-02-22T13:10:37.158Z,6.75
2019-02-22T13:13:07.753Z,9.43
2019-02-22T13:15:38.694Z,8.70
2019-02-22T13:18:11.741Z,4.47
2019-02-22T13:20:43.031Z,4.03
2019-02-22T13:23:15.154Z,5.90
2019-02-22T13:25:46.606Z,4.87
2019-02-22T13:28:17.427Z,6.40
2019-02-22T13:30:48.312Z,7.12
2019-02-22T13:33:19.409Z,5.53
2019-02-22T13:35:51.356Z,4.00
2019-02-22T13:38:22.391Z,6.20
2019-02-22T13:40:53.473Z,5.65
2019-02-22T13:43:24.776Z,8.18
2019-02-22T13:45:55.977Z,3.12
2019-02-22T13:48:26.417Z,6.20
2019-02-22T13:50:57.118Z,4.17
2019-02-22T13:53:27.634Z,6.28
2019-02-22T13:55:58.217Z,4.55
2019-02-22T13:58:31.895Z,6.17
2019-02-22T14:01:02.829Z,6.00
2019-02-22T14:03:33.679Z,2.67
2019-02-22T14:06:04.418Z,5.35
2019-02-22T14:08:36.027Z,7.83
2019-02-22T14:11:06.510Z,6.35
2019-02-22T14:13:37.137Z,3.25
2019-02-22T14:16:07.702Z,4.12
2019-02-22T14:18:38.615Z,5.10
2019-02-22T14:21:09.387Z,3.55
2019-02-22T14:23:40.019Z,3.58
2019-02-22T14:26:10.821Z,3.65
2019-02-22T14:28:41.471Z,4.20
2019-02-22T14:31:12.198Z,2.70
2019-02-22T14:33:43.132Z,3.17
2019-02-22T14:36:13.813Z,3.60
2019-02-22T14:38:44.681Z,3.37
2019-02-22T14:41:15.312Z,4.80
2019-02-22T14:43:46.138Z,2.17
2019-02-22T14:46:25.506Z,2.77
2019-02-22T14:48:49.555Z,7.22
2019-02-22T14:51:20.215Z,2.42
2019-02-22T14:53:51.130Z,4.65
2019-02-22T14:56:21.749Z,2.58
2019-02-22T14:58:52.465Z,3.40
2019-02-22T15:01:23.749Z,4.35
2019-02-22T15:03:54.603Z,3.98
2019-02-22T15:06:26.082Z,3.25
2019-02-22T15:08:56.773Z,2.35
2019-02-22T15:11:27.541Z,7.95
2019-02-22T15:13:58.086Z,2.15
2019-02-22T15:16:46.914Z,4.20
2019-02-22T15:19:19.086Z,4.15
2019-02-22T15:21:49.869Z,4.42
2019-02-22T15:24:20.552Z,5.20
2019-02-22T15:26:53.779Z,3.52
2019-02-22T15:29:23.624Z,7.85
2019-02-22T15:31:54.430Z,3.50
2019-02-22T15:34:25.113Z,3.70
2019-02-22T15:36:55.785Z,3.60
2019-02-22T15:39:26.604Z,5.90
2019-02-22T15:41:57.250Z,5.30
2019-02-22T15:44:27.936Z,2.58
2019-02-22T15:46:58.930Z,2.87
2019-02-22T15:49:29.818Z,3.33
2019-02-22T15:52:00.286Z,4.03
2019-02-22T15:54:31.176Z,3.50
2019-02-22T15:57:01.601Z,4.40
2019-02-22T15:59:32.088Z,2.72
2019-02-22T16:02:02.682Z,4.22
2019-02-22T16:04:47.251Z,2.72
2019-02-22T16:07:18.149Z,5.00
2019-02-22T16:09:48.859Z,2.65
2019-02-22T16:12:19.352Z,4.25
2019-02-22T16:14:49.888Z,3.40
2019-02-22T16:17:20.609Z,3.72
2019-02-22T16:19:51.610Z,3.77
2019-02-22T16:22:22.315Z,3.60
2019-02-22T16:24:52.939Z,3.42
2019-02-22T16:27:23.632Z,2.70
2019-02-22T16:29:54.418Z,2.22
2019-02-22T16:32:26.829Z,3.72
2019-02-22T16:34:57.712Z,3.05
2019-02-22T16:37:28.767Z,2.62
2019-02-22T16:39:59.453Z,2.58
2019-02-22T16:42:30.151Z,2.20
2019-02-22T16:45:00.732Z,3.17
2019-02-22T16:47:39.550Z,3.42
2019-02-22T16:50:03.628Z,4.30
2019-02-22T16:52:34.425Z,3.52
2019-02-22T16:55:05.411Z,4.08
2019-02-22T16:57:36.102Z,2.87
2019-02-22T17:00:07.919Z,3.50
2019-02-22T17:02:38.756Z,2.67
2019-02-22T17:05:11.036Z,4.37
2019-02-22T17:07:41.661Z,3.85
2019-02-22T17:10:12.516Z,4.95
2019-02-22T17:12:43.133Z,2.83
2019-02-22T17:15:13.878Z,3.17
2019-02-22T17:17:44.770Z,2.72
2019-02-22T17:20:15.411Z,3.30
2019-02-22T17:22:45.930Z,3.40
2019-02-22T17:25:17.133Z,2.52
2019-02-22T17:27:48.096Z,4.80
2019-02-22T17:30:19.939Z,4.37
2019-02-22T17:32:52.390Z,4.00
2019-02-22T17:35:23.009Z,6.03
2019-02-22T17:37:53.668Z,7.10
2019-02-22T17:40:24.288Z,6.05
2019-02-22T17:42:54.822Z,6.72
2019-02-22T17:45:25.612Z,4.97
2019-02-22T17:47:56.466Z,4.60
2019-02-22T17:50:27.204Z,8.70
2019-02-22T17:52:57.895Z,8.75
2019-02-22T17:55:28.326Z,9.30
2019-02-22T17:57:59.156Z,11.05
2019-02-22T18:00:29.793Z,9.40
2019-02-22T18:03:01.544Z,9.43
2019-02-22T18:05:32.910Z,8.23
2019-02-22T18:08:05.675Z,10.50
2019-02-22T18:10:36.690Z,9.43
2019-02-22T18:13:08.649Z,12.80
2019-02-22T18:15:40.342Z,9.65
2019-02-22T18:18:13.923Z,7.95
2019-02-22T18:20:45.411Z,12.63
2019-02-22T18:23:16.884Z,8.20
2019-02-22T18:25:48.504Z,10.48
2019-02-22T18:28:19.636Z,7.22
2019-02-22T18:30:51.277Z,5.80
2019-02-22T18:33:22.759Z,6.03
2019-02-22T18:35:54.571Z,5.65
2019-02-22T18:38:25.822Z,8.05
2019-02-22T18:40:57.336Z,8.10
2019-02-22T18:43:28.562Z,9.18
2019-02-22T18:46:00.580Z,8.40
2019-02-22T18:48:31.503Z,17.45
2019-02-22T18:51:02.103Z,59.55
2019-02-22T18:53:32.879Z,96.08
2019-02-22T18:56:03.600Z,57.25
2019-02-22T18:58:34.117Z,41.50
2019-02-22T19:01:05.004Z,31.87
2019-02-22T19:03:36.329Z,27.98
2019-02-22T19:06:07.088Z,25.65
2019-02-22T19:08:37.678Z,27.50
2019-02-22T19:11:08.524Z,27.52
2019-02-22T19:13:39.188Z,34.18
2019-02-22T19:16:09.891Z,26.70
2019-02-22T19:18:41.602Z,26.60
2019-02-22T19:21:12.606Z,27.65
2019-02-22T19:23:43.970Z,22.45
2019-02-22T19:26:14.799Z,20.00
2019-02-22T19:28:45.444Z,24.30
2019-02-22T19:31:16.029Z,24.25
2019-02-22T19:33:49.583Z,23.77
2019-02-22T19:36:19.966Z,24.02
2019-02-22T19:38:51.367Z,27.32
2019-02-22T19:41:23.041Z,26.62
2019-02-22T19:43:54.008Z,22.50
2019-02-22T19:46:24.854Z,21.12
2019-02-22T19:48:56.686Z,19.17
2019-02-22T19:51:28.404Z,24.25
2019-02-22T19:53:59.555Z,17.90
2019-02-22T19:56:30.763Z,18.62
2019-02-22T19:59:02.839Z,19.05
2019-02-22T20:01:33.689Z,20.25
2019-02-22T20:04:04.564Z,17.95
2019-02-22T20:06:36.327Z,22.58
2019-02-22T20:09:08.468Z,17.57
2019-02-22T20:11:39.715Z,16.07
2019-02-22T20:14:11.224Z,15.43
2019-02-22T20:16:42.520Z,12.43
2019-02-22T20:19:13.350Z,11.28
2019-02-22T20:21:43.871Z,9.40
2019-02-22T20:24:14.591Z,11.05
2019-02-22T20:26:45.636Z,11.00
2019-02-22T20:29:16.805Z,11.10
2019-02-22T20:31:47.999Z,11.15
2019-02-22T20:34:18.782Z,8.90
2019-02-22T20:36:49.419Z,9.78
2019-02-22T20:39:20.130Z,11.18
2019-02-22T20:41:50.870Z,10.15
2019-02-22T20:44:23.670Z,13.68
2019-02-22T20:46:54.222Z,11.15
2019-02-22T20:49:25.031Z,11.95
2019-02-22T20:51:55.703Z,11.28
2019-02-22T20:54:27.018Z,20.32
2019-02-22T20:56:57.801Z,16.25
2019-02-22T20:59:29.148Z,14.73
2019-02-22T21:02:00.307Z,9.40
2019-02-22T21:04:30.942Z,9.10
2019-02-22T21:07:01.683Z,11.43
2019-02-22T21:09:32.267Z,10.98
2019-02-22T21:12:02.950Z,10.60
2019-02-22T21:14:33.583Z,10.95
2019-02-22T21:17:04.621Z,9.18
2019-02-22T21:19:37.998Z,10.18
2019-02-22T21:22:08.848Z,8.03
2019-02-22T21:24:39.698Z,7.50
2019-02-22T21:27:10.414Z,10.95
2019-02-22T21:29:41.349Z,10.82
2019-02-22T21:32:12.493Z,11.80
2019-02-22T21:34:43.132Z,12.47
2019-02-22T21:37:13.871Z,12.37
2019-02-22T21:39:45.003Z,15.00
2019-02-22T21:42:20.189Z,6.50
2019-02-22T21:44:48.985Z,10.48
2019-02-22T21:47:19.515Z,7.70
2019-02-22T21:49:50.514Z,10.40
2019-02-22T21:52:21.169Z,9.50
2019-02-22T21:54:52.004Z,11.12
2019-02-22T21:57:22.517Z,12.53
2019-02-22T21:59:53.094Z,12.10
2019-02-22T22:02:23.588Z,14.75
2019-02-22T22:04:54.349Z,14.10
2019-02-22T22:07:24.765Z,10.85
2019-02-22T22:09:55.608Z,9.85
2019-02-22T22:12:26.048Z,10.28
2019-02-22T22:14:56.623Z,8.70
2019-02-22T22:17:27.645Z,9.60
2019-02-22T22:19:58.433Z,7.20
2019-02-22T22:22:29.134Z,10.38
2019-02-22T22:25:00.309Z,10.50
2019-02-22T22:27:30.867Z,7.17
2019-02-22T22:30:01.668Z,7.03
2019-02-22T22:32:32.404Z,6.60
2019-02-22T22:35:03.330Z,7.83
2019-02-22T22:37:34.233Z,8.00
2019-02-22T22:40:05.201Z,7.45
2019-02-22T22:42:37.965Z,6.10
2019-02-22T22:45:09.453Z,8.10
2019-02-22T22:47:40.150Z,6.80
2019-02-22T22:50:12.319Z,7.90
2019-02-22T22:52:43.072Z,7.20
2019-02-22T22:55:13.828Z,9.05
2019-02-22T22:57:44.627Z,6.20
2019-02-22T23:00:58.898Z,6.50
2019-02-22T23:03:29.520Z,7.62
2019-02-22T23:06:00.172Z,6.80
2019-02-22T23:08:30.823Z,6.08
2019-02-22T23:11:01.719Z,7.70
2019-02-22T23:13:32.477Z,6.60
2019-02-22T23:16:03.145Z,10.80
2019-02-22T23:18:33.915Z,8.50
2019-02-22T23:21:04.870Z,6.33
2019-02-22T23:23:35.728Z,6.97
2019-02-22T23:26:06.239Z,8.20
2019-02-22T23:28:36.981Z,7.45
2019-02-22T23:31:07.693Z,4.85
2019-02-22T23:33:38.504Z,6.53
2019-02-22T23:36:09.204Z,5.50
2019-02-22T23:38:39.901Z,9.10
2019-02-22T23:41:11.381Z,7.17
2019-02-22T23:43:42.179Z,8.03
2019-02-22T23:46:13.077Z,5.45
2019-02-22T23:48:43.687Z,6.53
2019-02-22T23:51:14.491Z,6.08
2019-02-22T23:53:45.111Z,5.10
2019-02-22T23:56:15.877Z,8.00
2019-02-22T23:58:47.072Z,6.15
